createdAt,value
2023-04-17T10:40:21.469Z,8.75
2023-04-17T10:41:23.700Z,8.98
2023-04-17T10:42:25.861Z,9.38
2023-04-17T10:43:27.920Z,9.86
2023-04-17T10:44:38.940Z,10.28
2023-04-17T10:45:59.571Z,10.41
2023-04-17T10:48:35.683Z,10.89
2023-04-17T10:50:00.104Z,11.00
2023-04-17T10:51:22.341Z,11.26
2023-04-17T10:52:32.763Z,11.20
2023-04-17T10:53:43.065Z,11.30
2023-04-17T10:55:10.571Z,10.91
2023-04-17T10:56:18.344Z,11.15
2023-04-17T10:57:52.429Z,11.37
2023-04-17T10:59:02.269Z,11.49
2023-04-17T11:00:16.528Z,11.36
2023-04-17T11:01:17.989Z,11.24
2023-04-17T11:02:33.898Z,11.38
2023-04-17T11:03:39.579Z,11.53
2023-04-17T11:04:41.023Z,11.29
2023-04-17T11:05:47.113Z,11.42
2023-04-17T11:06:49.316Z,11.54
2023-04-17T11:07:51.484Z,11.65
2023-04-17T11:08:56.825Z,11.75
2023-04-17T11:09:59.396Z,11.63
2023-04-17T11:11:00.876Z,11.24
2023-04-17T11:12:02.581Z,11.41
2023-04-17T11:13:04.143Z,11.47
2023-04-17T11:14:14.654Z,11.57
2023-04-17T11:15:16.661Z,11.60
2023-04-17T11:16:20.873Z,11.50
2023-04-17T11:17:22.763Z,11.51
2023-04-17T11:18:24.173Z,11.32
2023-04-17T11:19:25.802Z,11.17
2023-04-17T11:20:32.452Z,11.18
2023-04-17T11:21:33.821Z,10.91
2023-04-17T11:22:35.524Z,11.03
2023-04-17T11:23:37.533Z,11.00
2023-04-17T11:24:38.879Z,11.04
2023-04-17T11:25:40.288Z,10.97
2023-04-17T11:26:51.126Z,10.80
2023-04-17T11:28:00.423Z,10.93
2023-04-17T11:29:01.852Z,10.94
2023-04-17T11:30:03.445Z,11.00
2023-04-17T11:31:05.054Z,10.98
2023-04-17T11:32:11.074Z,10.96
2023-04-17T12:38:45.354Z,9.56
2023-04-17T12:41:02.533Z,9.75
2023-04-17T12:42:04.038Z,9.79
2023-04-17T12:43:05.658Z,10.05
2023-04-17T12:44:07.130Z,10.24
2023-04-17T12:45:09.210Z,10.42
2023-04-17T12:46:11.197Z,10.57
2023-04-17T12:47:12.634Z,10.64
2023-04-17T12:48:14.951Z,10.36
2023-04-17T12:49:16.563Z,10.39
2023-04-17T12:50:17.944Z,10.46
2023-04-17T12:51:19.291Z,10.54
2023-04-17T12:52:20.776Z,10.61
2023-04-17T12:54:51.038Z,10.31
2023-04-17T13:07:33.611Z,10.39
2023-04-17T13:13:17.244Z,10.49
2023-04-17T13:15:40.450Z,10.58
2023-04-17T13:18:10.557Z,10.70
2023-04-17T14:05:42.990Z,9.99
2023-04-17T14:07:58.465Z,9.94
2023-04-17T14:10:27.411Z,10.02
2023-04-17T14:12:53.102Z,9.89
2023-04-17T15:04:05.340Z,10.38
2023-04-17T15:06:21.573Z,10.32
2023-04-17T15:07:23.116Z,10.28
2023-04-17T15:09:40.210Z,10.41
2023-04-17T15:10:50.758Z,10.36
2023-04-17T15:13:13.468Z,10.31
2023-04-17T15:14:14.914Z,10.31
2023-04-17T15:16:47.874Z,10.30
2023-04-17T15:17:49.455Z,10.30
2023-04-17T15:18:51.154Z,10.47
2023-04-17T15:21:11.098Z,10.37
2023-04-17T15:23:32.229Z,10.20
2023-04-17T15:25:57.769Z,10.27
2023-04-17T15:28:25.540Z,10.23
